sensor_id;sensor_type;location;lat;lon;timestamp;temperature;humidity
30336;DHT22;17142;47.990;7.846;2023-11-19T00:00:52;11.60;99.90
30336;DHT22;17142;47.990;7.846;2023-11-19T00:03:17;11.60;99.90
30336;DHT22;17142;47.990;7.846;2023-11-19T00:05:43;11.80;99.90
30336;DHT22;17142;47.990;7.846;2023-11-19T00:08:12;12.00;99.90
30336;DHT22;17142;47.990;7.846;2023-11-19T00:10:38;12.00;99.90
30336;DHT22;17142;47.990;7.846;2023-11-19T00:13:03;12.10;99.90
30336;DHT22;17142;47.990;7.846;2023-11-19T00:15:29;12.00;99.90
30336;DHT22;17142;47.990;7.846;2023-11-19T00:17:55;12.10;99.90
30336;DHT22;17142;47.990;7.846;2023-11-19T00:20:21;12.10;99.90
30336;DHT22;17142;47.990;7.846;2023-11-19T00:22:49;12.10;99.90
30336;DHT22;17142;47.990;7.846;2023-11-19T00:25:21;12.10;99.90
30336;DHT22;17142;47.990;7.846;2023-11-19T00:27:51;12.10;99.90
30336;DHT22;17142;47.990;7.846;2023-11-19T00:30:18;12.10;99.90
30336;DHT22;17142;47.990;7.846;2023-11-19T00:32:46;12.20;99.90
30336;DHT22;17142;47.990;7.846;2023-11-19T00:35:12;12.30;99.90
30336;DHT22;17142;47.990;7.846;2023-11-19T00:37:40;12.20;99.90
30336;DHT22;17142;47.990;7.846;2023-11-19T00:40:08;12.20;99.90
30336;DHT22;17142;47.990;7.846;2023-11-19T00:42:38;12.20;99.90
30336;DHT22;17142;47.990;7.846;2023-11-19T00:45:04;12.20;99.90
30336;DHT22;17142;47.990;7.846;2023-11-19T00:47:33;12.20;99.90
30336;DHT22;17142;47.990;7.846;2023-11-19T00:50:02;12.20;99.90
30336;DHT22;17142;47.990;7.846;2023-11-19T00:52:28;12.20;99.90
30336;DHT22;17142;47.990;7.846;2023-11-19T00:54:53;12.20;99.90
30336;DHT22;17142;47.990;7.846;2023-11-19T00:57:19;12.20;99.90
30336;DHT22;17142;47.990;7.846;2023-11-19T00:59:47;12.20;99.90
30336;DHT22;17142;47.990;7.846;2023-11-19T01:02:17;12.30;99.90
30336;DHT22;17142;47.990;7.846;2023-11-19T01:04:43;12.30;99.90
30336;DHT22;17142;47.990;7.846;2023-11-19T01:07:09;12.30;99.90
30336;DHT22;17142;47.990;7.846;2023-11-19T01:09:47;12.20;99.90
30336;DHT22;17142;47.990;7.846;2023-11-19T01:12:15;12.20;99.90
30336;DHT22;17142;47.990;7.846;2023-11-19T01:14:42;12.40;99.90
30336;DHT22;17142;47.990;7.846;2023-11-19T01:17:08;12.30;99.90
30336;DHT22;17142;47.990;7.846;2023-11-19T01:19:34;12.30;99.90
30336;DHT22;17142;47.990;7.846;2023-11-19T01:22:02;12.30;99.90
30336;DHT22;17142;47.990;7.846;2023-11-19T01:24:30;12.50;99.90
30336;DHT22;17142;47.990;7.846;2023-11-19T01:26:56;12.60;99.90
30336;DHT22;17142;47.990;7.846;2023-11-19T01:29:23;12.50;99.90
30336;DHT22;17142;47.990;7.846;2023-11-19T01:31:48;12.50;99.90
30336;DHT22;17142;47.990;7.846;2023-11-19T01:34:16;12.50;99.90
30336;DHT22;17142;47.990;7.846;2023-11-19T01:36:42;12.50;99.90
30336;DHT22;17142;47.990;7.846;2023-11-19T01:39:10;12.50;99.90
30336;DHT22;17142;47.990;7.846;2023-11-19T01:41:36;12.50;99.90
30336;DHT22;17142;47.990;7.846;2023-11-19T01:44:02;12.60;99.90
30336;DHT22;17142;47.990;7.846;2023-11-19T01:46:28;12.70;99.90
30336;DHT22;17142;47.990;7.846;2023-11-19T01:48:54;12.70;99.90
30336;DHT22;17142;47.990;7.846;2023-11-19T01:51:21;12.70;99.90
30336;DHT22;17142;47.990;7.846;2023-11-19T01:53:48;12.70;99.90
30336;DHT22;17142;47.990;7.846;2023-11-19T01:56:15;12.70;99.90
30336;DHT22;17142;47.990;7.846;2023-11-19T01:58:42;12.70;99.90
30336;DHT22;17142;47.990;7.846;2023-11-19T02:01:12;12.60;99.90
30336;DHT22;17142;47.990;7.846;2023-11-19T02:03:38;12.30;99.90
30336;DHT22;17142;47.990;7.846;2023-11-19T02:06:05;12.00;99.90
30336;DHT22;17142;47.990;7.846;2023-11-19T02:08:31;11.70;99.90
30336;DHT22;17142;47.990;7.846;2023-11-19T02:10:56;11.50;99.90
30336;DHT22;17142;47.990;7.846;2023-11-19T02:13:26;11.30;99.90
30336;DHT22;17142;47.990;7.846;2023-11-19T02:15:54;11.30;99.90
30336;DHT22;17142;47.990;7.846;2023-11-19T02:18:24;11.30;99.90
30336;DHT22;17142;47.990;7.846;2023-11-19T02:20:56;11.30;99.90
30336;DHT22;17142;47.990;7.846;2023-11-19T02:23:22;11.30;99.90
30336;DHT22;17142;47.990;7.846;2023-11-19T02:28:36;11.40;99.90
30336;DHT22;17142;47.990;7.846;2023-11-19T02:31:02;11.30;99.90
30336;DHT22;17142;47.990;7.846;2023-11-19T02:33:30;11.30;99.90
30336;DHT22;17142;47.990;7.846;2023-11-19T02:35:56;11.20;99.90
30336;DHT22;17142;47.990;7.846;2023-11-19T02:38:24;11.10;99.90
30336;DHT22;17142;47.990;7.846;2023-11-19T02:40:50;11.10;99.90
30336;DHT22;17142;47.990;7.846;2023-11-19T02:43:15;11.10;99.90
30336;DHT22;17142;47.990;7.846;2023-11-19T02:45:41;11.20;99.90
30336;DHT22;17142;47.990;7.846;2023-11-19T02:48:11;11.20;99.90
30336;DHT22;17142;47.990;7.846;2023-11-19T02:50:36;11.20;99.90
30336;DHT22;17142;47.990;7.846;2023-11-19T02:53:02;11.30;99.90
30336;DHT22;17142;47.990;7.846;2023-11-19T02:55:28;11.20;99.90
30336;DHT22;17142;47.990;7.846;2023-11-19T02:57:56;11.20;99.90
30336;DHT22;17142;47.990;7.846;2023-11-19T03:00:26;11.20;99.90
30336;DHT22;17142;47.990;7.846;2023-11-19T03:03:01;11.20;99.90
30336;DHT22;17142;47.990;7.846;2023-11-19T03:05:46;11.20;99.90
30336;DHT22;17142;47.990;7.846;2023-11-19T03:08:14;11.20;99.90
30336;DHT22;17142;47.990;7.846;2023-11-19T03:10:40;11.20;99.90
30336;DHT22;17142;47.990;7.846;2023-11-19T03:13:05;11.20;99.90
30336;DHT22;17142;47.990;7.846;2023-11-19T03:15:38;11.10;99.90
30336;DHT22;17142;47.990;7.846;2023-11-19T03:18:04;11.10;99.90
30336;DHT22;17142;47.990;7.846;2023-11-19T03:20:32;11.10;99.90
30336;DHT22;17142;47.990;7.846;2023-11-19T03:22:57;11.10;99.90
30336;DHT22;17142;47.990;7.846;2023-11-19T03:25:26;11.10;99.90
30336;DHT22;17142;47.990;7.846;2023-11-19T03:28:02;11.10;99.90
30336;DHT22;17142;47.990;7.846;2023-11-19T03:30:31;11.10;99.90
30336;DHT22;17142;47.990;7.846;2023-11-19T03:32:57;11.20;99.90
30336;DHT22;17142;47.990;7.846;2023-11-19T03:35:24;11.10;99.90
30336;DHT22;17142;47.990;7.846;2023-11-19T03:37:52;11.20;99.90
30336;DHT22;17142;47.990;7.846;2023-11-19T03:40:18;11.20;99.90
30336;DHT22;17142;47.990;7.846;2023-11-19T03:42:46;11.20;99.90
30336;DHT22;17142;47.990;7.846;2023-11-19T03:45:13;11.20;99.90
30336;DHT22;17142;47.990;7.846;2023-11-19T03:47:40;11.30;99.90
30336;DHT22;17142;47.990;7.846;2023-11-19T03:50:06;11.30;99.90
30336;DHT22;17142;47.990;7.846;2023-11-19T03:52:33;11.30;99.90
30336;DHT22;17142;47.990;7.846;2023-11-19T03:54:59;11.40;99.90
30336;DHT22;17142;47.990;7.846;2023-11-19T03:57:25;11.50;99.90
30336;DHT22;17142;47.990;7.846;2023-11-19T03:59:50;11.50;99.90
30336;DHT22;17142;47.990;7.846;2023-11-19T04:02:16;11.50;99.90
30336;DHT22;17142;47.990;7.846;2023-11-19T04:04:42;11.50;99.90
30336;DHT22;17142;47.990;7.846;2023-11-19T04:07:08;11.40;99.90
30336;DHT22;17142;47.990;7.846;2023-11-19T04:09:33;11.40;99.90
30336;DHT22;17142;47.990;7.846;2023-11-19T04:12:00;11.50;99.90
30336;DHT22;17142;47.990;7.846;2023-11-19T04:14:26;11.50;99.90
30336;DHT22;17142;47.990;7.846;2023-11-19T04:16:54;11.40;99.90
30336;DHT22;17142;47.990;7.846;2023-11-19T04:19:20;11.40;99.90
30336;DHT22;17142;47.990;7.846;2023-11-19T04:21:46;11.40;99.90
30336;DHT22;17142;47.990;7.846;2023-11-19T04:24:14;11.40;99.90
30336;DHT22;17142;47.990;7.846;2023-11-19T04:26:43;11.40;99.90
30336;DHT22;17142;47.990;7.846;2023-11-19T04:29:15;11.30;99.90
30336;DHT22;17142;47.990;7.846;2023-11-19T04:31:45;11.40;99.90
30336;DHT22;17142;47.990;7.846;2023-11-19T04:34:11;11.50;99.90
30336;DHT22;17142;47.990;7.846;2023-11-19T04:36:37;11.50;99.90
30336;DHT22;17142;47.990;7.846;2023-11-19T04:39:05;11.60;99.90
30336;DHT22;17142;47.990;7.846;2023-11-19T04:41:52;11.60;99.90
30336;DHT22;17142;47.990;7.846;2023-11-19T04:44:21;11.60;99.90
30336;DHT22;17142;47.990;7.846;2023-11-19T04:46:47;11.60;99.90
30336;DHT22;17142;47.990;7.846;2023-11-19T04:49:13;11.60;99.90
30336;DHT22;17142;47.990;7.846;2023-11-19T04:51:44;11.60;99.90
30336;DHT22;17142;47.990;7.846;2023-11-19T04:54:14;11.60;99.90
30336;DHT22;17142;47.990;7.846;2023-11-19T04:56:40;11.60;99.90
30336;DHT22;17142;47.990;7.846;2023-11-19T04:59:13;11.70;99.90
30336;DHT22;17142;47.990;7.846;2023-11-19T05:01:38;11.80;99.90
30336;DHT22;17142;47.990;7.846;2023-11-19T05:04:07;11.70;99.90
30336;DHT22;17142;47.990;7.846;2023-11-19T05:06:33;11.70;99.90
30336;DHT22;17142;47.990;7.846;2023-11-19T05:09:00;11.70;99.90
30336;DHT22;17142;47.990;7.846;2023-11-19T05:11:33;11.70;99.90
30336;DHT22;17142;47.990;7.846;2023-11-19T05:14:00;11.80;99.90
30336;DHT22;17142;47.990;7.846;2023-11-19T05:16:25;11.80;99.90
30336;DHT22;17142;47.990;7.846;2023-11-19T05:18:51;11.90;99.90
30336;DHT22;17142;47.990;7.846;2023-11-19T05:21:17;11.80;99.90
30336;DHT22;17142;47.990;7.846;2023-11-19T05:23:43;11.90;99.90
30336;DHT22;17142;47.990;7.846;2023-11-19T05:26:08;11.90;99.90
30336;DHT22;17142;47.990;7.846;2023-11-19T05:28:38;11.90;99.90
30336;DHT22;17142;47.990;7.846;2023-11-19T05:31:05;12.00;99.90
30336;DHT22;17142;47.990;7.846;2023-11-19T05:33:31;12.00;99.90
30336;DHT22;17142;47.990;7.846;2023-11-19T05:35:57;11.90;99.90
30336;DHT22;17142;47.990;7.846;2023-11-19T05:38:22;11.90;99.90
30336;DHT22;17142;47.990;7.846;2023-11-19T05:40:48;11.90;99.90
30336;DHT22;17142;47.990;7.846;2023-11-19T05:43:16;11.90;99.90
30336;DHT22;17142;47.990;7.846;2023-11-19T05:45:42;11.90;99.90
30336;DHT22;17142;47.990;7.846;2023-11-19T05:48:08;11.90;99.90
30336;DHT22;17142;47.990;7.846;2023-11-19T05:50:36;11.90;99.90
30336;DHT22;17142;47.990;7.846;2023-11-19T05:53:01;11.90;99.90
30336;DHT22;17142;47.990;7.846;2023-11-19T05:55:27;12.00;99.90
30336;DHT22;17142;47.990;7.846;2023-11-19T05:57:57;12.00;99.90
30336;DHT22;17142;47.990;7.846;2023-11-19T06:00:23;12.00;99.90
30336;DHT22;17142;47.990;7.846;2023-11-19T06:02:48;12.00;99.90
30336;DHT22;17142;47.990;7.846;2023-11-19T06:05:14;12.00;99.90
30336;DHT22;17142;47.990;7.846;2023-11-19T06:07:39;12.00;99.90
30336;DHT22;17142;47.990;7.846;2023-11-19T06:10:06;12.10;99.90
30336;DHT22;17142;47.990;7.846;2023-11-19T06:12:37;12.10;99.90
30336;DHT22;17142;47.990;7.846;2023-11-19T06:15:07;12.20;99.90
30336;DHT22;17142;47.990;7.846;2023-11-19T06:17:36;12.20;99.90
30336;DHT22;17142;47.990;7.846;2023-11-19T06:20:03;12.20;99.90
30336;DHT22;17142;47.990;7.846;2023-11-19T06:22:32;12.20;99.90
30336;DHT22;17142;47.990;7.846;2023-11-19T06:24:58;12.30;99.90
30336;DHT22;17142;47.990;7.846;2023-11-19T06:27:23;12.40;99.90
30336;DHT22;17142;47.990;7.846;2023-11-19T06:29:52;12.40;99.90
30336;DHT22;17142;47.990;7.846;2023-11-19T06:32:20;12.40;99.90
30336;DHT22;17142;47.990;7.846;2023-11-19T06:34:45;12.40;99.90
30336;DHT22;17142;47.990;7.846;2023-11-19T06:37:16;12.40;99.90
30336;DHT22;17142;47.990;7.846;2023-11-19T06:39:44;12.40;99.90
30336;DHT22;17142;47.990;7.846;2023-11-19T06:42:12;12.40;99.90
30336;DHT22;17142;47.990;7.846;2023-11-19T06:44:37;12.40;99.90
30336;DHT22;17142;47.990;7.846;2023-11-19T06:47:03;12.40;99.90
30336;DHT22;17142;47.990;7.846;2023-11-19T06:49:29;12.40;99.90
30336;DHT22;17142;47.990;7.846;2023-11-19T06:51:54;12.50;99.90
30336;DHT22;17142;47.990;7.846;2023-11-19T06:54:22;12.40;99.90
30336;DHT22;17142;47.990;7.846;2023-11-19T06:56:50;12.40;99.90
30336;DHT22;17142;47.990;7.846;2023-11-19T06:59:16;12.40;99.90
30336;DHT22;17142;47.990;7.846;2023-11-19T07:01:42;12.50;99.90
30336;DHT22;17142;47.990;7.846;2023-11-19T07:04:11;12.50;99.90
30336;DHT22;17142;47.990;7.846;2023-11-19T07:06:38;12.50;99.90
30336;DHT22;17142;47.990;7.846;2023-11-19T07:09:07;12.50;99.90
30336;DHT22;17142;47.990;7.846;2023-11-19T07:11:39;12.60;99.90
30336;DHT22;17142;47.990;7.846;2023-11-19T07:14:06;12.60;99.90
30336;DHT22;17142;47.990;7.846;2023-11-19T07:16:32;12.70;99.90
30336;DHT22;17142;47.990;7.846;2023-11-19T07:19:06;12.70;99.90
30336;DHT22;17142;47.990;7.846;2023-11-19T07:21:34;12.70;99.90
30336;DHT22;17142;47.990;7.846;2023-11-19T07:24:01;12.70;99.90
30336;DHT22;17142;47.990;7.846;2023-11-19T07:26:27;12.80;99.90
30336;DHT22;17142;47.990;7.846;2023-11-19T07:28:53;12.80;99.90
30336;DHT22;17142;47.990;7.846;2023-11-19T07:31:19;12.80;99.90
30336;DHT22;17142;47.990;7.846;2023-11-19T07:33:45;12.90;99.90
30336;DHT22;17142;47.990;7.846;2023-11-19T07:36:16;12.90;99.90
30336;DHT22;17142;47.990;7.846;2023-11-19T07:38:43;13.00;99.90
30336;DHT22;17142;47.990;7.846;2023-11-19T07:41:10;13.00;99.90
30336;DHT22;17142;47.990;7.846;2023-11-19T07:43:39;13.10;99.90
30336;DHT22;17142;47.990;7.846;2023-11-19T07:46:09;13.10;99.90
30336;DHT22;17142;47.990;7.846;2023-11-19T07:48:39;13.20;99.90
30336;DHT22;17142;47.990;7.846;2023-11-19T07:51:05;13.20;99.90
30336;DHT22;17142;47.990;7.846;2023-11-19T07:53:30;13.20;99.90
30336;DHT22;17142;47.990;7.846;2023-11-19T07:55:56;13.30;99.90
30336;DHT22;17142;47.990;7.846;2023-11-19T07:58:25;13.30;99.90
30336;DHT22;17142;47.990;7.846;2023-11-19T08:00:51;13.30;99.90
30336;DHT22;17142;47.990;7.846;2023-11-19T08:03:17;13.30;99.90
30336;DHT22;17142;47.990;7.846;2023-11-19T08:05:47;13.30;99.90
30336;DHT22;17142;47.990;7.846;2023-11-19T08:08:13;13.30;99.90
30336;DHT22;17142;47.990;7.846;2023-11-19T08:10:39;13.40;99.90
30336;DHT22;17142;47.990;7.846;2023-11-19T08:13:05;13.40;99.90
30336;DHT22;17142;47.990;7.846;2023-11-19T08:15:31;13.40;99.90
30336;DHT22;17142;47.990;7.846;2023-11-19T08:17:57;13.40;99.90
30336;DHT22;17142;47.990;7.846;2023-11-19T08:20:22;13.40;99.90
30336;DHT22;17142;47.990;7.846;2023-11-19T08:22:49;13.30;99.90
30336;DHT22;17142;47.990;7.846;2023-11-19T08:25:14;13.30;99.90
30336;DHT22;17142;47.990;7.846;2023-11-19T08:27:42;13.30;99.90
30336;DHT22;17142;47.990;7.846;2023-11-19T08:30:11;13.40;99.90
30336;DHT22;17142;47.990;7.846;2023-11-19T08:32:39;13.40;99.90
30336;DHT22;17142;47.990;7.846;2023-11-19T08:35:05;13.40;99.90
30336;DHT22;17142;47.990;7.846;2023-11-19T08:37:31;13.50;99.90
30336;DHT22;17142;47.990;7.846;2023-11-19T08:39:56;13.50;99.90
30336;DHT22;17142;47.990;7.846;2023-11-19T08:42:22;13.60;99.90
30336;DHT22;17142;47.990;7.846;2023-11-19T08:44:51;13.60;99.90
30336;DHT22;17142;47.990;7.846;2023-11-19T08:47:19;13.70;99.90
30336;DHT22;17142;47.990;7.846;2023-11-19T08:49:45;13.60;99.90
30336;DHT22;17142;47.990;7.846;2023-11-19T08:52:14;13.60;99.90
30336;DHT22;17142;47.990;7.846;2023-11-19T08:54:42;13.70;99.90
30336;DHT22;17142;47.990;7.846;2023-11-19T08:57:10;13.60;99.90
30336;DHT22;17142;47.990;7.846;2023-11-19T08:59:36;13.70;99.90
30336;DHT22;17142;47.990;7.846;2023-11-19T09:02:05;13.70;99.90
30336;DHT22;17142;47.990;7.846;2023-11-19T09:04:33;13.70;99.90
30336;DHT22;17142;47.990;7.846;2023-11-19T09:07:01;13.70;99.90
30336;DHT22;17142;47.990;7.846;2023-11-19T09:09:27;13.70;99.90
30336;DHT22;17142;47.990;7.846;2023-11-19T09:11:53;13.70;99.90
30336;DHT22;17142;47.990;7.846;2023-11-19T09:14:18;13.70;99.90
30336;DHT22;17142;47.990;7.846;2023-11-19T09:16:48;13.80;99.90
30336;DHT22;17142;47.990;7.846;2023-11-19T09:19:14;13.80;99.90
30336;DHT22;17142;47.990;7.846;2023-11-19T09:21:43;13.90;99.90
30336;DHT22;17142;47.990;7.846;2023-11-19T09:24:08;14.00;99.90
30336;DHT22;17142;47.990;7.846;2023-11-19T09:26:34;13.90;99.90
30336;DHT22;17142;47.990;7.846;2023-11-19T09:29:01;13.90;99.90
30336;DHT22;17142;47.990;7.846;2023-11-19T09:31:27;13.90;99.90
30336;DHT22;17142;47.990;7.846;2023-11-19T09:33:57;13.80;99.90
30336;DHT22;17142;47.990;7.846;2023-11-19T09:36:23;13.70;99.90
30336;DHT22;17142;47.990;7.846;2023-11-19T09:38:50;13.70;99.90
30336;DHT22;17142;47.990;7.846;2023-11-19T09:41:17;13.60;99.90
30336;DHT22;17142;47.990;7.846;2023-11-19T09:43:45;13.60;99.90
30336;DHT22;17142;47.990;7.846;2023-11-19T09:46:15;13.70;99.90
30336;DHT22;17142;47.990;7.846;2023-11-19T09:48:42;13.70;99.90
30336;DHT22;17142;47.990;7.846;2023-11-19T09:51:09;13.70;99.90
30336;DHT22;17142;47.990;7.846;2023-11-19T09:53:36;13.80;99.90
30336;DHT22;17142;47.990;7.846;2023-11-19T09:56:03;13.90;99.90
30336;DHT22;17142;47.990;7.846;2023-11-19T09:58:33;14.00;99.90
30336;DHT22;17142;47.990;7.846;2023-11-19T10:00:59;14.00;99.90
30336;DHT22;17142;47.990;7.846;2023-11-19T10:03:33;14.10;99.90
30336;DHT22;17142;47.990;7.846;2023-11-19T10:06:07;14.10;99.90
30336;DHT22;17142;47.990;7.846;2023-11-19T10:08:34;14.10;99.90
30336;DHT22;17142;47.990;7.846;2023-11-19T10:10:59;14.20;99.90
30336;DHT22;17142;47.990;7.846;2023-11-19T10:13:31;14.10;99.90
30336;DHT22;17142;47.990;7.846;2023-11-19T10:15:56;14.10;99.90
30336;DHT22;17142;47.990;7.846;2023-11-19T10:18:28;14.10;99.90
30336;DHT22;17142;47.990;7.846;2023-11-19T10:20:56;14.10;99.90
30336;DHT22;17142;47.990;7.846;2023-11-19T10:23:22;14.10;99.90
30336;DHT22;17142;47.990;7.846;2023-11-19T10:25:47;14.10;99.90
30336;DHT22;17142;47.990;7.846;2023-11-19T10:28:15;14.10;99.90
30336;DHT22;17142;47.990;7.846;2023-11-19T10:30:42;14.20;99.90
30336;DHT22;17142;47.990;7.846;2023-11-19T10:33:14;14.40;99.90
30336;DHT22;17142;47.990;7.846;2023-11-19T10:36:03;14.50;99.90
30336;DHT22;17142;47.990;7.846;2023-11-19T10:38:28;14.60;99.90
30336;DHT22;17142;47.990;7.846;2023-11-19T10:40:54;14.70;99.90
30336;DHT22;17142;47.990;7.846;2023-11-19T10:43:21;14.70;99.90
30336;DHT22;17142;47.990;7.846;2023-11-19T10:45:49;14.80;99.90
30336;DHT22;17142;47.990;7.846;2023-11-19T10:48:15;14.80;99.90
30336;DHT22;17142;47.990;7.846;2023-11-19T10:50:42;14.80;99.90
30336;DHT22;17142;47.990;7.846;2023-11-19T10:53:10;14.80;99.90
30336;DHT22;17142;47.990;7.846;2023-11-19T10:55:39;14.90;99.90
30336;DHT22;17142;47.990;7.846;2023-11-19T10:58:06;14.80;99.90
30336;DHT22;17142;47.990;7.846;2023-11-19T11:00:50;14.70;99.90
30336;DHT22;17142;47.990;7.846;2023-11-19T11:03:19;14.50;99.90
30336;DHT22;17142;47.990;7.846;2023-11-19T11:05:49;14.50;99.90
30336;DHT22;17142;47.990;7.846;2023-11-19T11:08:16;14.60;99.90
30336;DHT22;17142;47.990;7.846;2023-11-19T11:10:57;14.70;99.90
30336;DHT22;17142;47.990;7.846;2023-11-19T11:13:24;15.00;99.90
30336;DHT22;17142;47.990;7.846;2023-11-19T11:15:51;15.30;99.90
30336;DHT22;17142;47.990;7.846;2023-11-19T11:18:17;15.50;99.90
30336;DHT22;17142;47.990;7.846;2023-11-19T11:20:46;15.70;99.90
30336;DHT22;17142;47.990;7.846;2023-11-19T11:26:40;15.70;99.90
30336;DHT22;17142;47.990;7.846;2023-11-19T11:29:09;15.50;99.90
30336;DHT22;17142;47.990;7.846;2023-11-19T11:32:08;15.30;99.90
30336;DHT22;17142;47.990;7.846;2023-11-19T11:37:39;15.00;99.90
30336;DHT22;17142;47.990;7.846;2023-11-19T11:40:16;15.00;99.90
30336;DHT22;17142;47.990;7.846;2023-11-19T11:42:46;15.00;99.90
30336;DHT22;17142;47.990;7.846;2023-11-19T11:45:14;15.10;99.90
30336;DHT22;17142;47.990;7.846;2023-11-19T11:50:09;15.10;99.90
30336;DHT22;17142;47.990;7.846;2023-11-19T11:55:35;15.00;99.90
30336;DHT22;17142;47.990;7.846;2023-11-19T11:58:08;14.90;99.90
30336;DHT22;17142;47.990;7.846;2023-11-19T12:00:39;14.90;99.90
30336;DHT22;17142;47.990;7.846;2023-11-19T12:03:08;14.90;99.90
30336;DHT22;17142;47.990;7.846;2023-11-19T12:05:42;14.90;99.90
30336;DHT22;17142;47.990;7.846;2023-11-19T12:08:10;14.90;99.90
30336;DHT22;17142;47.990;7.846;2023-11-19T12:10:52;15.00;99.90
30336;DHT22;17142;47.990;7.846;2023-11-19T12:13:18;15.10;99.90
30336;DHT22;17142;47.990;7.846;2023-11-19T12:18:27;15.10;99.90
30336;DHT22;17142;47.990;7.846;2023-11-19T12:20:54;15.00;99.90
30336;DHT22;17142;47.990;7.846;2023-11-19T12:23:19;15.00;99.90
30336;DHT22;17142;47.990;7.846;2023-11-19T12:25:46;14.90;99.90
30336;DHT22;17142;47.990;7.846;2023-11-19T12:28:12;14.90;99.90
30336;DHT22;17142;47.990;7.846;2023-11-19T12:30:38;14.90;99.90
30336;DHT22;17142;47.990;7.846;2023-11-19T12:33:08;14.90;99.90
30336;DHT22;17142;47.990;7.846;2023-11-19T12:35:42;15.00;99.90
30336;DHT22;17142;47.990;7.846;2023-11-19T12:38:08;15.00;99.90
30336;DHT22;17142;47.990;7.846;2023-11-19T12:40:34;15.10;99.90
30336;DHT22;17142;47.990;7.846;2023-11-19T12:43:02;15.10;99.90
30336;DHT22;17142;47.990;7.846;2023-11-19T12:45:35;15.20;99.90
30336;DHT22;17142;47.990;7.846;2023-11-19T12:48:09;15.20;99.90
30336;DHT22;17142;47.990;7.846;2023-11-19T12:50:58;15.20;99.90
30336;DHT22;17142;47.990;7.846;2023-11-19T12:53:28;15.20;99.90
30336;DHT22;17142;47.990;7.846;2023-11-19T12:56:07;15.20;99.90
30336;DHT22;17142;47.990;7.846;2023-11-19T12:58:35;15.20;99.90
30336;DHT22;17142;47.990;7.846;2023-11-19T13:01:06;15.20;99.90
30336;DHT22;17142;47.990;7.846;2023-11-19T13:03:40;15.20;99.90
30336;DHT22;17142;47.990;7.846;2023-11-19T13:06:13;15.10;99.90
30336;DHT22;17142;47.990;7.846;2023-11-19T13:08:48;15.00;99.90
30336;DHT22;17142;47.990;7.846;2023-11-19T13:11:30;15.10;99.90
30336;DHT22;17142;47.990;7.846;2023-11-19T13:14:03;15.00;99.90
30336;DHT22;17142;47.990;7.846;2023-11-19T13:16:39;14.80;99.90
30336;DHT22;17142;47.990;7.846;2023-11-19T13:19:04;14.70;99.90
30336;DHT22;17142;47.990;7.846;2023-11-19T13:21:31;14.60;99.90
30336;DHT22;17142;47.990;7.846;2023-11-19T13:23:57;14.50;99.90
30336;DHT22;17142;47.990;7.846;2023-11-19T13:26:22;14.50;99.90
30336;DHT22;17142;47.990;7.846;2023-11-19T13:28:48;14.50;99.90
30336;DHT22;17142;47.990;7.846;2023-11-19T13:31:14;14.50;99.90
30336;DHT22;17142;47.990;7.846;2023-11-19T13:33:41;14.40;99.90
30336;DHT22;17142;47.990;7.846;2023-11-19T13:36:07;14.40;99.90
30336;DHT22;17142;47.990;7.846;2023-11-19T13:38:36;14.40;99.90
30336;DHT22;17142;47.990;7.846;2023-11-19T13:41:05;14.40;99.90
30336;DHT22;17142;47.990;7.846;2023-11-19T13:43:31;14.40;99.90
30336;DHT22;17142;47.990;7.846;2023-11-19T13:45:57;14.30;99.90
30336;DHT22;17142;47.990;7.846;2023-11-19T13:48:25;14.30;99.90
30336;DHT22;17142;47.990;7.846;2023-11-19T13:50:55;14.40;99.90
30336;DHT22;17142;47.990;7.846;2023-11-19T13:53:21;14.40;99.90
30336;DHT22;17142;47.990;7.846;2023-11-19T13:55:49;14.50;99.90
30336;DHT22;17142;47.990;7.846;2023-11-19T13:58:15;14.50;99.90
30336;DHT22;17142;47.990;7.846;2023-11-19T14:00:41;14.50;99.90
30336;DHT22;17142;47.990;7.846;2023-11-19T14:03:07;14.50;99.90
30336;DHT22;17142;47.990;7.846;2023-11-19T14:05:34;14.50;99.90
30336;DHT22;17142;47.990;7.846;2023-11-19T14:08:02;14.50;99.90
30336;DHT22;17142;47.990;7.846;2023-11-19T14:10:29;14.50;99.90
30336;DHT22;17142;47.990;7.846;2023-11-19T14:12:57;14.50;99.90
30336;DHT22;17142;47.990;7.846;2023-11-19T14:15:23;14.40;99.90
30336;DHT22;17142;47.990;7.846;2023-11-19T14:17:49;14.40;99.90
30336;DHT22;17142;47.990;7.846;2023-11-19T14:20:19;14.40;99.90
30336;DHT22;17142;47.990;7.846;2023-11-19T14:22:46;14.40;99.90
30336;DHT22;17142;47.990;7.846;2023-11-19T14:25:14;14.40;99.90
30336;DHT22;17142;47.990;7.846;2023-11-19T14:27:41;14.40;99.90
30336;DHT22;17142;47.990;7.846;2023-11-19T14:30:09;14.40;99.90
30336;DHT22;17142;47.990;7.846;2023-11-19T14:32:40;14.40;99.90
30336;DHT22;17142;47.990;7.846;2023-11-19T14:35:06;14.40;99.90
30336;DHT22;17142;47.990;7.846;2023-11-19T14:37:33;14.30;99.90
30336;DHT22;17142;47.990;7.846;2023-11-19T14:39:59;14.30;99.90
30336;DHT22;17142;47.990;7.846;2023-11-19T14:42:25;14.30;99.90
30336;DHT22;17142;47.990;7.846;2023-11-19T14:44:51;14.20;99.90
30336;DHT22;17142;47.990;7.846;2023-11-19T14:47:25;14.20;99.90
30336;DHT22;17142;47.990;7.846;2023-11-19T14:49:53;14.20;99.90
30336;DHT22;17142;47.990;7.846;2023-11-19T14:52:19;14.10;99.90
30336;DHT22;17142;47.990;7.846;2023-11-19T14:54:44;14.10;99.90
30336;DHT22;17142;47.990;7.846;2023-11-19T14:57:10;14.00;99.90
30336;DHT22;17142;47.990;7.846;2023-11-19T14:59:36;13.90;99.90
30336;DHT22;17142;47.990;7.846;2023-11-19T15:02:05;13.90;99.90
30336;DHT22;17142;47.990;7.846;2023-11-19T15:04:31;14.00;99.90
30336;DHT22;17142;47.990;7.846;2023-11-19T15:06:57;14.00;99.90
30336;DHT22;17142;47.990;7.846;2023-11-19T15:09:23;14.10;99.90
30336;DHT22;17142;47.990;7.846;2023-11-19T15:11:50;14.00;99.90
30336;DHT22;17142;47.990;7.846;2023-11-19T15:14:16;13.90;99.90
30336;DHT22;17142;47.990;7.846;2023-11-19T15:16:44;13.80;99.90
30336;DHT22;17142;47.990;7.846;2023-11-19T15:19:11;13.70;99.90
30336;DHT22;17142;47.990;7.846;2023-11-19T15:21:38;13.60;99.90
30336;DHT22;17142;47.990;7.846;2023-11-19T15:24:06;13.60;99.90
30336;DHT22;17142;47.990;7.846;2023-11-19T15:26:35;13.50;99.90
30336;DHT22;17142;47.990;7.846;2023-11-19T15:29:01;13.40;99.90
30336;DHT22;17142;47.990;7.846;2023-11-19T15:31:27;13.40;99.90
30336;DHT22;17142;47.990;7.846;2023-11-19T15:33:52;13.30;99.90
30336;DHT22;17142;47.990;7.846;2023-11-19T15:36:21;13.20;99.90
30336;DHT22;17142;47.990;7.846;2023-11-19T15:38:48;13.10;99.90
30336;DHT22;17142;47.990;7.846;2023-11-19T15:41:14;13.10;99.90
30336;DHT22;17142;47.990;7.846;2023-11-19T15:43:40;13.10;99.90
30336;DHT22;17142;47.990;7.846;2023-11-19T15:46:07;13.00;99.90
30336;DHT22;17142;47.990;7.846;2023-11-19T15:48:33;13.00;99.90
30336;DHT22;17142;47.990;7.846;2023-11-19T15:50:58;13.00;99.90